Time;durP1;ratioP1;P1;durP2;ratioP2;P2;SDS_P1;SDS_P2;PMS_P1;PMS_P2;Temp;Humidity;BMP_temperature;BMP_pressure;BME280_temperature;BME280_humidity;BME280_pressure;Samples;Min_cycle;Max_cycle;Signal;HPM_P1;HPM_P2
2022/10/07 00:02:15;;;;;;;11.07;2.45;;;;;;;;;;5012422;28;20613;-73
2022/10/07 00:04:44;;;;;;;8.23;2.08;;;;;;;;;;5012080;28;20232;-73
2022/10/07 00:07:10;;;;;;;9.85;2.08;;;;;;;;;;5002001;28;20263;-72
2022/10/07 00:09:35;;;;;;;10.25;2.42;;;;;;;;;;5003587;28;20765;-72
2022/10/07 00:12:01;;;;;;;10.60;2.20;;;;;;;;;;5001855;28;21605;-70
2022/10/07 00:14:26;;;;;;;10.35;2.40;;;;;;;;;;5003565;28;21186;-72
2022/10/07 00:16:52;;;;;;;8.15;2.10;;;;;;;;;;5003155;28;20216;-72
2022/10/07 00:19:17;;;;;;;9.40;2.38;;;;;;;;;;5001271;28;20883;-72
2022/10/07 00:21:42;;;;;;;9.30;2.28;;;;;;;;;;4990289;28;20212;-72
2022/10/07 00:24:09;;;;;;;7.50;2.15;;;;;;;;;;4988811;28;20232;-72
2022/10/07 00:26:34;;;;;;;11.35;2.50;;;;;;;;;;4990181;28;20582;-72
2022/10/07 00:29:00;;;;;;;7.80;2.50;;;;;;;;;;4997230;28;20570;-72
2022/10/07 00:31:26;;;;;;;9.65;2.50;;;;;;;;;;4995192;28;20228;-72
2022/10/07 00:33:51;;;;;;;12.75;2.97;;;;;;;;;;4994401;28;20579;-72
2022/10/07 00:36:19;;;;;;;10.75;2.60;;;;;;;;;;4995877;28;20220;-72
2022/10/07 00:38:44;;;;;;;8.93;2.83;;;;;;;;;;4994837;28;20359;-72
2022/10/07 00:41:17;;;;;;;8.38;2.30;;;;;;;;;;4996111;28;20307;-71
2022/10/07 00:43:42;;;;;;;9.35;2.55;;;;;;;;;;4990196;28;20220;-72
2022/10/07 00:46:15;;;;;;;16.23;2.45;;;;;;;;;;4989525;28;20757;-72
2022/10/07 00:48:41;;;;;;;10.55;2.40;;;;;;;;;;4988426;28;20303;-72
2022/10/07 00:51:06;;;;;;;12.18;2.30;;;;;;;;;;4995009;28;20299;-71
2022/10/07 00:53:32;;;;;;;11.50;2.70;;;;;;;;;;4996086;28;20327;-72
2022/10/07 00:56:00;;;;;;;9.57;2.70;;;;;;;;;;4994606;28;20208;-72
2022/10/07 00:58:27;;;;;;;10.00;2.97;;;;;;;;;;4995939;28;20323;-72
2022/10/07 01:00:52;;;;;;;9.70;2.65;;;;;;;;;;4995797;28;20468;-72
2022/10/07 01:03:17;;;;;;;10.93;2.60;;;;;;;;;;4994939;28;20286;-72
2022/10/07 01:05:43;;;;;;;15.32;2.90;;;;;;;;;;4993175;28;20811;-71
2022/10/07 01:08:08;;;;;;;12.75;3.40;;;;;;;;;;4988767;28;20239;-71
2022/10/07 01:10:37;;;;;;;14.50;3.03;;;;;;;;;;4989145;28;20295;-71
2022/10/07 01:13:13;;;;;;;13.27;3.33;;;;;;;;;;4991955;28;20240;-71
2022/10/07 01:15:40;;;;;;;9.00;2.65;;;;;;;;;;4996385;28;20335;-71
2022/10/07 01:18:08;;;;;;;10.35;2.90;;;;;;;;;;4995029;28;20284;-71
2022/10/07 01:20:35;;;;;;;11.73;2.88;;;;;;;;;;4996510;28;20639;-72
2022/10/07 01:23:07;;;;;;;9.77;2.92;;;;;;;;;;4994586;28;20309;-71
2022/10/07 01:25:42;;;;;;;12.23;2.72;;;;;;;;;;4994240;28;20258;-72
2022/10/07 01:28:11;;;;;;;12.45;3.35;;;;;;;;;;4991166;28;20223;-71
2022/10/07 01:30:37;;;;;;;9.93;2.83;;;;;;;;;;4987832;28;20703;-72
2022/10/07 01:33:03;;;;;;;12.55;2.80;;;;;;;;;;4988934;28;20719;-71
2022/10/07 01:35:31;;;;;;;11.45;3.00;;;;;;;;;;4994247;28;20307;-72
2022/10/07 01:37:59;;;;;;;11.60;3.05;;;;;;;;;;4998407;28;20271;-71
2022/10/07 01:40:26;;;;;;;9.85;2.95;;;;;;;;;;4998884;28;20208;-71
2022/10/07 01:42:51;;;;;;;14.57;3.00;;;;;;;;;;4998017;28;20217;-71
2022/10/07 01:45:20;;;;;;;12.52;3.20;;;;;;;;;;4998049;28;20224;-71
2022/10/07 01:47:46;;;;;;;11.23;3.10;;;;;;;;;;4999195;28;20713;-71
2022/10/07 01:50:11;;;;;;;10.23;3.30;;;;;;;;;;4995204;28;20220;-71
2022/10/07 01:52:42;;;;;;;8.73;2.72;;;;;;;;;;4992626;28;20686;-72
2022/10/07 01:55:16;;;;;;;10.32;2.88;;;;;;;;;;4992524;28;20683;-71
2022/10/07 01:57:48;;;;;;;12.10;3.75;;;;;;;;;;4992560;28;20302;-71
2022/10/07 02:00:13;;;;;;;8.73;2.67;;;;;;;;;;4996880;28;20216;-72
2022/10/07 02:02:39;;;;;;;10.82;3.10;;;;;;;;;;4999882;28;20263;-71
2022/10/07 02:05:11;;;;;;;10.77;3.33;;;;;;;;;;4998150;28;20607;-71
2022/10/07 02:07:45;;;;;;;13.55;3.72;;;;;;;;;;4999205;28;20444;-72
2022/10/07 02:10:14;;;;;;;11.75;3.28;;;;;;;;;;4997488;28;20220;-71
2022/10/07 02:12:41;;;;;;;12.38;3.20;;;;;;;;;;4996225;28;20227;-71
2022/10/07 02:15:10;;;;;;;10.50;3.20;;;;;;;;;;4990882;28;20568;-71
2022/10/07 02:17:36;;;;;;;15.18;3.05;;;;;;;;;;4992215;28;20212;-71
2022/10/07 02:20:03;;;;;;;12.25;3.13;;;;;;;;;;4992120;28;20781;-71
2022/10/07 02:22:28;;;;;;;11.32;3.25;;;;;;;;;;5002305;28;20690;-71
2022/10/07 02:24:54;;;;;;;12.30;3.47;;;;;;;;;;5003277;28;20263;-71
2022/10/07 02:27:20;;;;;;;11.45;3.38;;;;;;;;;;5003218;28;20215;-71
2022/10/07 02:29:45;;;;;;;14.45;3.58;;;;;;;;;;5005306;28;20570;-71
2022/10/07 02:32:12;;;;;;;10.25;3.25;;;;;;;;;;5002784;28;20695;-71
2022/10/07 02:34:37;;;;;;;11.68;3.55;;;;;;;;;;5004950;28;20217;-71
2022/10/07 02:37:04;;;;;;;19.05;3.53;;;;;;;;;;4991630;28;20217;-70
2022/10/07 02:39:29;;;;;;;13.75;3.63;;;;;;;;;;4990293;28;20217;-71
2022/10/07 02:42:03;;;;;;;11.20;3.70;;;;;;;;;;4991444;28;20224;-70
2022/10/07 02:44:30;;;;;;;10.10;3.40;;;;;;;;;;4998270;28;20236;-71
2022/10/07 02:46:55;;;;;;;12.80;3.15;;;;;;;;;;4996527;28;20212;-71
2022/10/07 02:49:20;;;;;;;17.38;4.30;;;;;;;;;;4998766;28;20271;-70
2022/10/07 02:51:47;;;;;;;15.10;3.83;;;;;;;;;;4999361;28;20224;-71
2022/10/07 02:54:12;;;;;;;12.50;3.55;;;;;;;;;;4996320;28;20247;-71
2022/10/07 02:56:37;;;;;;;9.90;3.53;;;;;;;;;;4999536;28;20409;-72
2022/10/07 02:59:03;;;;;;;13.10;3.47;;;;;;;;;;4993827;28;20236;-70
2022/10/07 03:01:29;;;;;;;7.55;2.92;;;;;;;;;;4989782;28;20973;-71
2022/10/07 03:03:55;;;;;;;12.85;3.30;;;;;;;;;;4989748;28;20236;-71
2022/10/07 03:06:21;;;;;;;11.13;3.50;;;;;;;;;;4993694;28;20216;-71
2022/10/07 03:08:46;;;;;;;11.40;3.20;;;;;;;;;;4995478;28;20208;-71
2022/10/07 03:11:12;;;;;;;11.82;3.58;;;;;;;;;;4997172;28;20216;-71
2022/10/07 03:13:37;;;;;;;11.45;3.45;;;;;;;;;;4997643;28;20223;-71
2022/10/07 03:16:04;;;;;;;12.02;4.05;;;;;;;;;;4996093;28;20262;-71
2022/10/07 03:18:29;;;;;;;13.75;3.78;;;;;;;;;;4997294;28;20303;-71
2022/10/07 03:20:54;;;;;;;12.40;3.37;;;;;;;;;;4994877;28;20220;-70
2022/10/07 03:23:20;;;;;;;12.10;3.33;;;;;;;;;;4990244;28;21052;-71
2022/10/07 03:25:47;;;;;;;13.77;3.45;;;;;;;;;;4991132;28;20216;-71
2022/10/07 03:28:13;;;;;;;9.40;3.40;;;;;;;;;;4991681;28;20347;-70
2022/10/07 03:30:38;;;;;;;13.38;3.50;;;;;;;;;;4995781;28;20291;-70
2022/10/07 03:33:04;;;;;;;10.27;3.47;;;;;;;;;;4996753;28;20220;-70
2022/10/07 03:35:30;;;;;;;8.25;3.63;;;;;;;;;;4997093;28;20645;-71
2022/10/07 03:37:55;;;;;;;9.85;4.03;;;;;;;;;;4996902;28;20212;-71
2022/10/07 03:40:20;;;;;;;12.20;3.85;;;;;;;;;;4996393;28;20208;-71
2022/10/07 03:42:49;;;;;;;10.85;3.63;;;;;;;;;;4996615;28;20805;-71
2022/10/07 03:45:14;;;;;;;11.18;4.13;;;;;;;;;;4990398;28;20220;-72
2022/10/07 03:47:39;;;;;;;12.07;4.07;;;;;;;;;;4990996;28;20219;-71
2022/10/07 03:50:05;;;;;;;14.27;4.40;;;;;;;;;;4990783;28;20228;-71
2022/10/07 03:52:30;;;;;;;9.57;4.03;;;;;;;;;;4996411;28;20212;-71
2022/10/07 03:54:55;;;;;;;12.30;3.90;;;;;;;;;;4997105;28;20220;-71
2022/10/07 04:00:05;;;;;;;12.07;4.53;;;;;;;;;;4995699;28;20258;-70
2022/10/07 04:02:30;;;;;;;12.07;4.22;;;;;;;;;;4996786;28;20231;-71
2022/10/07 04:04:55;;;;;;;11.13;3.70;;;;;;;;;;4996719;28;20224;-71
2022/10/07 04:07:21;;;;;;;15.60;3.53;;;;;;;;;;4992577;28;20221;-71
2022/10/07 04:09:46;;;;;;;12.25;4.63;;;;;;;;;;5012316;28;20282;-71
2022/10/07 04:12:12;;;;;;;16.98;4.45;;;;;;;;;;4990297;28;20212;-71
2022/10/07 04:14:38;;;;;;;11.85;3.58;;;;;;;;;;4990242;28;20748;-71
2022/10/07 04:17:03;;;;;;;10.07;3.70;;;;;;;;;;4995158;28;20216;-70
2022/10/07 04:19:29;;;;;;;10.45;3.75;;;;;;;;;;4995421;28;20224;-70
2022/10/07 04:21:55;;;;;;;13.02;3.60;;;;;;;;;;4996675;28;20240;-70
2022/10/07 04:24:21;;;;;;;13.50;3.65;;;;;;;;;;4995831;28;20232;-70
2022/10/07 04:26:46;;;;;;;12.57;4.53;;;;;;;;;;4996696;28;20576;-70
2022/10/07 04:29:11;;;;;;;11.57;3.50;;;;;;;;;;4996102;28;20240;-70
2022/10/07 04:31:36;;;;;;;9.25;4.13;;;;;;;;;;4993587;28;20469;-70
2022/10/07 04:34:01;;;;;;;11.65;3.80;;;;;;;;;;4989884;28;20220;-69
2022/10/07 04:36:27;;;;;;;16.20;4.07;;;;;;;;;;4989699;28;20543;-70
2022/10/07 04:38:52;;;;;;;12.57;4.28;;;;;;;;;;4996714;28;20347;-70
2022/10/07 04:41:17;;;;;;;14.27;4.05;;;;;;;;;;5002027;28;20274;-70
2022/10/07 04:43:43;;;;;;;13.00;3.80;;;;;;;;;;5002745;28;20587;-71
2022/10/07 04:46:10;;;;;;;9.77;3.40;;;;;;;;;;5001443;28;20220;-70
2022/10/07 04:48:35;;;;;;;14.43;4.15;;;;;;;;;;5002885;28;20695;-70
2022/10/07 04:51:02;;;;;;;11.70;3.85;;;;;;;;;;5008171;28;20218;-68
2022/10/07 04:53:28;;;;;;;14.18;4.88;;;;;;;;;;5030388;28;20816;-70
2022/10/07 04:55:53;;;;;;;11.80;3.88;;;;;;;;;;5026927;28;20204;-72
2022/10/07 04:58:18;;;;;;;10.43;4.15;;;;;;;;;;5012011;28;20323;-68
2022/10/07 05:00:44;;;;;;;10.50;4.35;;;;;;;;;;5011145;28;20239;-73
2022/10/07 05:03:10;;;;;;;10.05;3.83;;;;;;;;;;5011098;28;20714;-72
2022/10/07 05:05:38;;;;;;;12.93;3.60;;;;;;;;;;5011192;28;20212;-72
2022/10/07 05:08:04;;;;;;;10.25;3.65;;;;;;;;;;5011221;28;20236;-73
2022/10/07 05:10:29;;;;;;;13.50;3.80;;;;;;;;;;5014193;28;20243;-72
2022/10/07 05:12:54;;;;;;;11.48;3.83;;;;;;;;;;5016119;28;20560;-74
2022/10/07 05:15:19;;;;;;;10.13;3.95;;;;;;;;;;5013905;28;20262;-75
2022/10/07 05:17:45;;;;;;;12.73;4.15;;;;;;;;;;5015525;28;20204;-71
2022/10/07 05:20:11;;;;;;;10.30;4.05;;;;;;;;;;5015024;28;20200;-71
2022/10/07 05:22:36;;;;;;;14.73;4.80;;;;;;;;;;5014895;28;20721;-71
2022/10/07 05:25:01;;;;;;;13.05;4.22;;;;;;;;;;5015082;28;20216;-70
2022/10/07 05:27:27;;;;;;;13.90;4.05;;;;;;;;;;5015050;28;20291;-71
2022/10/07 05:29:52;;;;;;;14.30;4.75;;;;;;;;;;5014586;28;20209;-72
2022/10/07 05:32:17;;;;;;;14.00;4.60;;;;;;;;;;5014610;28;20200;-71
2022/10/07 05:34:43;;;;;;;11.60;4.53;;;;;;;;;;5008876;28;20216;-73
2022/10/07 05:37:09;;;;;;;11.07;4.07;;;;;;;;;;5010671;28;20216;-74
2022/10/07 05:39:34;;;;;;;12.43;4.13;;;;;;;;;;5010368;28;20216;-74
2022/10/07 05:42:00;;;;;;;12.93;4.77;;;;;;;;;;5008847;28;20401;-73
2022/10/07 05:44:25;;;;;;;15.65;4.30;;;;;;;;;;5009891;28;20233;-71
2022/10/07 05:46:51;;;;;;;17.98;4.20;;;;;;;;;;5014727;28;20219;-70
2022/10/07 05:49:16;;;;;;;14.55;4.25;;;;;;;;;;5028970;28;20211;-72
2022/10/07 05:51:41;;;;;;;13.85;4.03;;;;;;;;;;5019587;28;20710;-76
2022/10/07 05:54:07;;;;;;;12.70;4.22;;;;;;;;;;5010853;28;20296;-74
2022/10/07 05:56:32;;;;;;;14.13;4.43;;;;;;;;;;5010297;28;20216;-75
2022/10/07 05:58:57;;;;;;;10.65;4.70;;;;;;;;;;5009261;28;20722;-79
2022/10/07 06:01:23;;;;;;;13.37;4.87;;;;;;;;;;5011481;28;20293;-76
2022/10/07 06:03:49;;;;;;;13.57;4.47;;;;;;;;;;5009234;28;20224;-77
2022/10/07 06:06:14;;;;;;;15.02;5.00;;;;;;;;;;5007762;28;20312;-73
2022/10/07 06:08:40;;;;;;;16.10;4.97;;;;;;;;;;5007237;28;20371;-73
2022/10/07 06:13:49;;;;;;;12.07;4.10;;;;;;;;;;5003557;28;20270;-73
2022/10/07 06:16:15;;;;;;;12.40;4.60;;;;;;;;;;5008640;28;20603;-71
2022/10/07 06:18:40;;;;;;;19.38;4.85;;;;;;;;;;5008116;28;20291;-72
2022/10/07 06:21:05;;;;;;;16.77;4.82;;;;;;;;;;5007710;28;20254;-69
2022/10/07 06:23:30;;;;;;;12.10;4.50;;;;;;;;;;5009357;28;20694;-74
2022/10/07 06:25:56;;;;;;;12.35;4.55;;;;;;;;;;5008749;28;20216;-71
2022/10/07 06:28:22;;;;;;;17.33;5.18;;;;;;;;;;5008571;28;20659;-70
2022/10/07 06:30:48;;;;;;;12.85;4.25;;;;;;;;;;5009625;28;20219;-68
2022/10/07 06:33:13;;;;;;;13.48;4.88;;;;;;;;;;5008197;28;20209;-70
2022/10/07 06:35:38;;;;;;;12.10;4.78;;;;;;;;;;5007241;28;20216;-74
2022/10/07 06:38:04;;;;;;;13.43;4.80;;;;;;;;;;5006765;28;20327;-73
2022/10/07 06:40:29;;;;;;;16.17;4.90;;;;;;;;;;5011564;28;20221;-74
2022/10/07 06:42:54;;;;;;;16.08;4.47;;;;;;;;;;5008361;28;20231;-73
2022/10/07 06:45:19;;;;;;;18.02;5.22;;;;;;;;;;5007983;28;20224;-74
2022/10/07 06:47:45;;;;;;;11.82;4.45;;;;;;;;;;5008370;28;20600;-74
2022/10/07 06:50:10;;;;;;;16.90;5.40;;;;;;;;;;5008329;28;20212;-74
2022/10/07 06:52:35;;;;;;;17.52;5.13;;;;;;;;;;5008660;28;20232;-74
2022/10/07 06:55:00;;;;;;;17.15;5.82;;;;;;;;;;5008824;28;20208;-72
2022/10/07 06:57:26;;;;;;;16.25;4.93;;;;;;;;;;5009081;28;20302;-74
2022/10/07 06:59:53;;;;;;;20.35;5.15;;;;;;;;;;5008741;28;20220;-73
2022/10/07 07:02:19;;;;;;;20.50;5.50;;;;;;;;;;5007979;28;20220;-73
2022/10/07 07:04:44;;;;;;;20.42;5.65;;;;;;;;;;5008990;28;20225;-72
2022/10/07 07:07:10;;;;;;;17.77;4.90;;;;;;;;;;5008351;28;20828;-72
2022/10/07 07:09:35;;;;;;;18.88;5.07;;;;;;;;;;5009197;28;20215;-73
2022/10/07 07:12:01;;;;;;;17.00;4.82;;;;;;;;;;5008379;28;20216;-72
2022/10/07 07:14:27;;;;;;;13.88;4.40;;;;;;;;;;5007569;28;20896;-74
2022/10/07 07:16:52;;;;;;;15.82;4.88;;;;;;;;;;5008285;28;20220;-74
2022/10/07 07:19:18;;;;;;;15.95;4.43;;;;;;;;;;5007413;28;20218;-73
2022/10/07 07:21:43;;;;;;;17.08;4.82;;;;;;;;;;5006363;28;20220;-73
2022/10/07 07:24:08;;;;;;;14.70;4.40;;;;;;;;;;5007992;28;20359;-73
2022/10/07 07:26:34;;;;;;;19.40;4.13;;;;;;;;;;5008817;28;20294;-73
2022/10/07 07:29:01;;;;;;;13.30;4.07;;;;;;;;;;5008172;28;20287;-73
2022/10/07 07:31:27;;;;;;;14.38;4.70;;;;;;;;;;5007852;28;20215;-73
2022/10/07 07:33:52;;;;;;;13.52;3.90;;;;;;;;;;5007344;28;20222;-73
2022/10/07 07:36:19;;;;;;;14.68;3.70;;;;;;;;;;5006827;28;20259;-73
2022/10/07 07:38:51;;;;;;;18.17;4.47;;;;;;;;;;5008260;28;20215;-73
2022/10/07 07:41:18;;;;;;;13.30;3.25;;;;;;;;;;5007185;28;20663;-73
2022/10/07 07:43:46;;;;;;;17.73;4.55;;;;;;;;;;5007769;28;20221;-73
2022/10/07 07:46:12;;;;;;;12.57;3.42;;;;;;;;;;5007390;28;20235;-74
2022/10/07 07:48:37;;;;;;;14.05;4.10;;;;;;;;;;5006827;28;20213;-73
2022/10/07 07:51:04;;;;;;;13.15;4.20;;;;;;;;;;5007140;28;20278;-73
2022/10/07 07:53:29;;;;;;;14.40;3.70;;;;;;;;;;5007892;28;20220;-74
2022/10/07 07:55:55;;;;;;;18.70;4.82;;;;;;;;;;5007130;28;20215;-73
2022/10/07 07:58:21;;;;;;;12.40;4.45;;;;;;;;;;5005720;28;20260;-73
2022/10/07 08:01:00;;;;;;;14.18;3.80;;;;;;;;;;5008220;28;20303;-74
2022/10/07 08:03:26;;;;;;;17.48;4.38;;;;;;;;;;5005596;28;20220;-73
2022/10/07 08:05:51;;;;;;;20.73;5.22;;;;;;;;;;5008015;28;20278;-74
2022/10/07 08:08:17;;;;;;;14.57;4.68;;;;;;;;;;5007134;28;20223;-74
2022/10/07 08:10:42;;;;;;;15.82;4.95;;;;;;;;;;5006992;28;20220;-74
2022/10/07 08:13:08;;;;;;;19.00;4.50;;;;;;;;;;5006908;28;20216;-72
2022/10/07 08:15:34;;;;;;;15.48;4.05;;;;;;;;;;5006639;28;20259;-74
2022/10/07 08:17:59;;;;;;;14.85;4.20;;;;;;;;;;5007137;28;20251;-74
2022/10/07 08:20:25;;;;;;;23.13;5.10;;;;;;;;;;5006597;28;20220;-73
2022/10/07 08:22:50;;;;;;;17.60;4.05;;;;;;;;;;5008008;28;20244;-73
2022/10/07 08:25:15;;;;;;;15.88;4.07;;;;;;;;;;5011391;28;20307;-74
2022/10/07 08:27:41;;;;;;;15.20;4.55;;;;;;;;;;5012860;28;20235;-74
2022/10/07 08:30:07;;;;;;;16.40;3.90;;;;;;;;;;5012173;28;20228;-73
2022/10/07 08:32:33;;;;;;;16.65;4.60;;;;;;;;;;5011957;28;20216;-73
2022/10/07 08:34:58;;;;;;;15.52;3.83;;;;;;;;;;5012541;28;20205;-74
2022/10/07 08:37:23;;;;;;;13.77;3.80;;;;;;;;;;5012299;28;20204;-73
2022/10/07 08:39:48;;;;;;;14.50;4.10;;;;;;;;;;5011807;28;20212;-74
2022/10/07 08:42:18;;;;;;;14.05;3.85;;;;;;;;;;5012284;28;20216;-74
2022/10/07 08:44:43;;;;;;;14.40;3.85;;;;;;;;;;5011638;28;20224;-75
2022/10/07 08:47:16;;;;;;;15.10;3.80;;;;;;;;;;5014604;28;20238;-74
2022/10/07 08:50:03;;;;;;;13.43;3.72;;;;;;;;;;5016454;28;20299;-74
2022/10/07 08:52:38;;;;;;;13.57;3.17;;;;;;;;;;5015668;28;20396;-75
2022/10/07 08:55:17;;;;;;;15.07;3.03;;;;;;;;;;5016054;28;20216;-75
2022/10/07 08:57:47;;;;;;;13.57;2.90;;;;;;;;;;5011934;28;20303;-75
2022/10/07 09:00:14;;;;;;;19.63;3.55;;;;;;;;;;4995569;28;20224;-73
2022/10/07 09:02:43;;;;;;;12.10;2.75;;;;;;;;;;5010571;28;20286;-75
2022/10/07 09:05:15;;;;;;;13.85;3.25;;;;;;;;;;5014454;28;20699;-73
2022/10/07 09:07:59;;;;;;;14.43;2.83;;;;;;;;;;5014369;28;20208;-74
2022/10/07 09:10:27;;;;;;;15.75;2.53;;;;;;;;;;5030732;28;20219;-76
2022/10/07 09:12:56;;;;;;;10.15;2.47;;;;;;;;;;5014512;28;20283;-76
2022/10/07 09:15:27;;;;;;;11.63;2.15;;;;;;;;;;5014366;28;20208;-75
2022/10/07 09:17:53;;;;;;;12.73;2.80;;;;;;;;;;5015913;28;20217;-75
2022/10/07 09:20:19;;;;;;;14.63;2.80;;;;;;;;;;5013773;28;20211;-74
2022/10/07 09:22:47;;;;;;;14.90;3.10;;;;;;;;;;5015865;28;20295;-74
2022/10/07 09:25:19;;;;;;;17.33;3.55;;;;;;;;;;5014123;28;20217;-74
2022/10/07 09:27:45;;;;;;;18.70;3.65;;;;;;;;;;5015240;28;20270;-74
2022/10/07 09:30:11;;;;;;;18.23;2.95;;;;;;;;;;5015347;28;20212;-74
2022/10/07 09:32:37;;;;;;;12.02;2.30;;;;;;;;;;5015955;28;20228;-75
2022/10/07 09:35:04;;;;;;;11.25;2.55;;;;;;;;;;5014479;28;20217;-74
2022/10/07 09:37:30;;;;;;;13.05;2.53;;;;;;;;;;5015708;28;20216;-74
2022/10/07 09:39:56;;;;;;;9.07;2.28;;;;;;;;;;5015652;28;20209;-75
2022/10/07 09:42:28;;;;;;;12.65;2.22;;;;;;;;;;5014521;28;20239;-76
2022/10/07 09:44:54;;;;;;;12.23;2.60;;;;;;;;;;5014340;28;20653;-75
2022/10/07 09:47:20;;;;;;;11.38;2.60;;;;;;;;;;5015070;28;20300;-75
2022/10/07 09:49:47;;;;;;;12.63;2.53;;;;;;;;;;5013374;28;20263;-75
2022/10/07 09:52:13;;;;;;;16.73;3.13;;;;;;;;;;5013834;28;20248;-75
2022/10/07 09:54:38;;;;;;;12.48;2.28;;;;;;;;;;5015554;28;20626;-75
2022/10/07 09:57:04;;;;;;;12.90;2.22;;;;;;;;;;5013976;28;20243;-75
2022/10/07 09:59:30;;;;;;;12.75;2.45;;;;;;;;;;5015247;28;20729;-76
2022/10/07 10:01:56;;;;;;;10.30;2.42;;;;;;;;;;5014664;28;20241;-74
2022/10/07 10:04:24;;;;;;;13.52;2.58;;;;;;;;;;5013451;28;20554;-73
2022/10/07 10:06:49;;;;;;;15.40;2.75;;;;;;;;;;5015083;28;20243;-74
2022/10/07 10:09:21;;;;;;;11.95;2.35;;;;;;;;;;5012978;28;20252;-75
2022/10/07 10:12:05;;;;;;;12.77;2.25;;;;;;;;;;5014973;28;20212;-74
2022/10/07 10:14:35;;;;;;;12.32;2.33;;;;;;;;;;5014736;28;20216;-74
2022/10/07 10:17:01;;;;;;;11.07;1.92;;;;;;;;;;5013983;28;20236;-69
2022/10/07 10:19:27;;;;;;;11.65;2.17;;;;;;;;;;5014879;28;20200;-76
2022/10/07 10:21:55;;;;;;;12.63;2.50;;;;;;;;;;5013581;28;20593;-74
2022/10/07 10:26:24;;;;;;;11.73;2.35;;;;;;;;;;5013761;28;21019;-74
2022/10/07 10:27:08;;;;;;;10.63;1.88;;;;;;;;;;5012920;28;20698;-73
2022/10/07 10:29:36;;;;;;;12.43;2.13;;;;;;;;;;5013603;28;20212;-74
2022/10/07 10:32:14;;;;;;;11.98;2.47;;;;;;;;;;5012387;28;20216;-74
2022/10/07 10:34:46;;;;;;;12.63;2.17;;;;;;;;;;5014811;28;20257;-74
2022/10/07 10:37:17;;;;;;;16.60;3.03;;;;;;;;;;5013437;28;20216;-75
2022/10/07 10:39:56;;;;;;;14.60;2.50;;;;;;;;;;5014381;28;20220;-75
2022/10/07 10:42:25;;;;;;;9.88;2.10;;;;;;;;;;5012945;28;20212;-74
2022/10/07 10:45:06;;;;;;;11.65;1.90;;;;;;;;;;5013818;28;20224;-75
2022/10/07 10:47:50;;;;;;;8.85;1.90;;;;;;;;;;5014264;28;20235;-75
2022/10/07 10:50:23;;;;;;;12.55;2.30;;;;;;;;;;5013636;28;20208;-74
2022/10/07 10:52:49;;;;;;;11.00;2.20;;;;;;;;;;5013428;28;20220;-75
2022/10/07 10:55:22;;;;;;;10.07;1.90;;;;;;;;;;5013789;28;20242;-74
2022/10/07 10:57:47;;;;;;;10.82;2.38;;;;;;;;;;4993505;28;20286;-75
2022/10/07 11:00:14;;;;;;;9.57;2.15;;;;;;;;;;4993517;28;20217;-75
2022/10/07 11:02:45;;;;;;;12.05;2.42;;;;;;;;;;5007179;28;20224;-75
2022/10/07 11:05:12;;;;;;;9.68;1.88;;;;;;;;;;5012995;28;20228;-74
2022/10/07 11:07:38;;;;;;;13.90;2.50;;;;;;;;;;5011878;28;20533;-74
2022/10/07 11:10:17;;;;;;;8.60;1.95;;;;;;;;;;5013611;28;20679;-75
2022/10/07 11:12:43;;;;;;;12.55;2.75;;;;;;;;;;5012281;28;20583;-75
2022/10/07 11:15:18;;;;;;;14.05;2.35;;;;;;;;;;5013290;28;20303;-75
2022/10/07 11:17:44;;;;;;;12.70;2.22;;;;;;;;;;5012557;28;20218;-75
2022/10/07 11:20:14;;;;;;;8.10;1.83;;;;;;;;;;5012544;28;20577;-77
2022/10/07 11:22:41;;;;;;;11.82;1.92;;;;;;;;;;5012423;28;20307;-75
2022/10/07 11:25:08;;;;;;;8.57;1.80;;;;;;;;;;5013383;28;20258;-74
2022/10/07 11:27:34;;;;;;;9.85;2.05;;;;;;;;;;5012862;28;20219;-75
2022/10/07 11:30:00;;;;;;;10.73;2.15;;;;;;;;;;5013847;28;20217;-75
2022/10/07 11:32:33;;;;;;;9.85;1.80;;;;;;;;;;5013475;28;20588;-77
2022/10/07 11:35:01;;;;;;;12.15;2.55;;;;;;;;;;5012772;28;20767;-76
2022/10/07 11:37:28;;;;;;;11.43;2.58;;;;;;;;;;5011933;28;20255;-77
2022/10/07 11:39:53;;;;;;;11.30;1.90;;;;;;;;;;5012085;28;20216;-75
2022/10/07 11:42:21;;;;;;;13.45;2.25;;;;;;;;;;5010741;28;20215;-75
2022/10/07 11:44:52;;;;;;;8.10;1.90;;;;;;;;;;5013699;28;20224;-76
2022/10/07 11:47:19;;;;;;;8.10;1.88;;;;;;;;;;5011711;28;20717;-76
2022/10/07 11:49:46;;;;;;;10.13;2.47;;;;;;;;;;5012485;28;20621;-76
2022/10/07 11:52:22;;;;;;;9.48;2.38;;;;;;;;;;5012806;28;20270;-77
2022/10/07 11:54:58;;;;;;;12.48;2.45;;;;;;;;;;5012942;28;20307;-76
2022/10/07 11:57:23;;;;;;;10.07;1.50;;;;;;;;;;5012487;28;20200;-76
2022/10/07 11:59:49;;;;;;;8.60;1.63;;;;;;;;;;5012057;28;20251;-76
2022/10/07 12:02:26;;;;;;;8.07;1.55;;;;;;;;;;5010438;28;20200;-77
2022/10/07 12:04:52;;;;;;;8.63;1.73;;;;;;;;;;5013056;28;20582;-76
2022/10/07 12:07:33;;;;;;;11.18;2.10;;;;;;;;;;5012309;28;20223;-77
2022/10/07 12:09:59;;;;;;;13.98;2.53;;;;;;;;;;5012227;28;20216;-76
2022/10/07 12:12:24;;;;;;;7.60;1.63;;;;;;;;;;5011616;28;20216;-76
2022/10/07 12:14:57;;;;;;;11.27;2.15;;;;;;;;;;5013086;28;20235;-76
2022/10/07 12:17:23;;;;;;;10.35;1.92;;;;;;;;;;5011626;28;20271;-76
2022/10/07 12:20:08;;;;;;;7.60;1.40;;;;;;;;;;5012800;28;20208;-76
2022/10/07 12:22:34;;;;;;;8.27;1.80;;;;;;;;;;5011607;28;20693;-77
2022/10/07 12:25:19;;;;;;;7.43;1.60;;;;;;;;;;5011239;28;20706;-77
2022/10/07 12:27:45;;;;;;;8.20;1.70;;;;;;;;;;5012444;28;20247;-76
2022/10/07 12:30:22;;;;;;;7.15;1.60;;;;;;;;;;5010327;28;20223;-76
2022/10/07 12:32:50;;;;;;;8.32;1.80;;;;;;;;;;5011257;28;20269;-76
2022/10/07 12:35:28;;;;;;;7.93;1.73;;;;;;;;;;5012400;28;20243;-76
2022/10/07 12:38:09;;;;;;;9.35;1.60;;;;;;;;;;5011733;28;20215;-76
2022/10/07 12:40:34;;;;;;;7.80;2.15;;;;;;;;;;5012251;28;20278;-76
2022/10/07 12:43:09;;;;;;;7.22;2.05;;;;;;;;;;5011310;28;20232;-76
2022/10/07 12:45:35;;;;;;;9.10;1.90;;;;;;;;;;5011714;28;20230;-76
2022/10/07 12:48:01;;;;;;;8.15;1.65;;;;;;;;;;5010917;28;20208;-74
2022/10/07 12:50:26;;;;;;;8.77;1.83;;;;;;;;;;5012523;28;20303;-76
2022/10/07 12:52:53;;;;;;;8.77;1.80;;;;;;;;;;5010407;28;20334;-77
2022/10/07 12:55:20;;;;;;;11.98;1.65;;;;;;;;;;5011934;28;20228;-76
2022/10/07 12:57:47;;;;;;;9.40;1.60;;;;;;;;;;5011665;28;20711;-76
2022/10/07 13:00:14;;;;;;;11.20;2.10;;;;;;;;;;5011890;28;20227;-78
2022/10/07 13:02:52;;;;;;;9.52;1.92;;;;;;;;;;5011028;28;20212;-76
2022/10/07 13:05:33;;;;;;;7.72;1.77;;;;;;;;;;5011384;28;20232;-75
2022/10/07 13:08:06;;;;;;;9.77;1.80;;;;;;;;;;5010962;28;20219;-77
2022/10/07 13:10:35;;;;;;;7.65;1.67;;;;;;;;;;5012018;28;20568;-76
2022/10/07 13:13:06;;;;;;;7.05;1.58;;;;;;;;;;5011551;28;20224;-76
2022/10/07 13:15:35;;;;;;;12.50;2.42;;;;;;;;;;5012165;28;20213;-75
2022/10/07 13:18:03;;;;;;;9.63;1.98;;;;;;;;;;5010449;28;20291;-74
2022/10/07 13:20:31;;;;;;;9.30;2.00;;;;;;;;;;4990466;28;20589;-75
2022/10/07 13:22:56;;;;;;;9.20;1.83;;;;;;;;;;5008250;28;20213;-76
2022/10/07 13:25:22;;;;;;;10.27;1.95;;;;;;;;;;5010437;28;20307;-75
2022/10/07 13:27:52;;;;;;;9.52;1.80;;;;;;;;;;5010131;28;20333;-75
2022/10/07 13:30:37;;;;;;;7.68;2.10;;;;;;;;;;5010843;28;20204;-76
2022/10/07 13:33:21;;;;;;;7.63;1.80;;;;;;;;;;5013689;28;20248;-76
2022/10/07 13:35:47;;;;;;;7.15;1.70;;;;;;;;;;5015862;28;20216;-76
2022/10/07 13:38:22;;;;;;;10.13;1.52;;;;;;;;;;5015040;28;20304;-74
2022/10/07 13:40:52;;;;;;;6.40;1.45;;;;;;;;;;5013581;28;20216;-76
2022/10/07 13:43:17;;;;;;;8.27;1.92;;;;;;;;;;5015337;28;20730;-74
2022/10/07 13:45:43;;;;;;;9.27;2.20;;;;;;;;;;5015850;28;20212;-76
2022/10/07 13:48:17;;;;;;;9.98;2.25;;;;;;;;;;5014250;28;20683;-74
2022/10/07 13:50:42;;;;;;;9.77;2.28;;;;;;;;;;5015090;28;20216;-72
2022/10/07 13:53:13;;;;;;;8.20;1.63;;;;;;;;;;5014897;28;20258;-74
2022/10/07 13:55:38;;;;;;;8.45;1.88;;;;;;;;;;5013552;28;20231;-78
2022/10/07 13:58:04;;;;;;;7.35;1.58;;;;;;;;;;5014682;28;20622;-74
2022/10/07 14:00:31;;;;;;;8.32;1.80;;;;;;;;;;5014287;28;20325;-74
2022/10/07 14:02:56;;;;;;;9.73;1.90;;;;;;;;;;5013239;28;20726;-74
2022/10/07 14:05:24;;;;;;;10.07;1.70;;;;;;;;;;5014867;28;20299;-74
2022/10/07 14:07:52;;;;;;;8.40;1.67;;;;;;;;;;5013900;28;20224;-74
2022/10/07 14:10:17;;;;;;;11.15;2.10;;;;;;;;;;5014204;28;20243;-74
2022/10/07 14:12:44;;;;;;;7.72;1.50;;;;;;;;;;5015155;28;20220;-74
2022/10/07 14:15:18;;;;;;;8.43;1.75;;;;;;;;;;5012674;28;20212;-74
2022/10/07 14:17:47;;;;;;;6.75;1.58;;;;;;;;;;5014941;28;20675;-72
2022/10/07 14:20:19;;;;;;;7.55;1.60;;;;;;;;;;5002733;28;20217;-74
2022/10/07 14:22:46;;;;;;;7.47;1.42;;;;;;;;;;5008403;28;20234;-75
2022/10/07 14:25:16;;;;;;;7.80;1.48;;;;;;;;;;5008888;28;20224;-76
2022/10/07 14:27:42;;;;;;;8.80;1.75;;;;;;;;;;5008682;28;20222;-76
2022/10/07 14:30:25;;;;;;;14.32;1.63;;;;;;;;;;5007865;28;20303;-76
2022/10/07 14:35:42;;;;;;;8.52;1.40;;;;;;;;;;5012248;28;20219;-77
2022/10/07 14:38:24;;;;;;;8.02;1.75;;;;;;;;;;5006838;28;20217;-75
2022/10/07 14:40:49;;;;;;;8.32;1.60;;;;;;;;;;5009049;28;20236;-75
2022/10/07 14:43:16;;;;;;;9.30;2.03;;;;;;;;;;5006545;28;20714;-74
2022/10/07 14:45:41;;;;;;;8.57;1.67;;;;;;;;;;5008985;28;20296;-74